Time;durP1;ratioP1;P1;durP2;ratioP2;P2;SDS_P1;SDS_P2;PMS_P1;PMS_P2;Temp;Humidity;BMP_temperature;BMP_pressure;BME280_temperature;BME280_humidity;BME280_pressure;Samples;Min_cycle;Max_cycle;Signal;HPM_P1;HPM_P2
2022/06/25 00:00:21;;;;;;;;;;;;;;;;;;4973430;28;19914;-82
2022/06/25 00:02:47;;;;;;;;;;;;;;;;;;4955495;28;20275;-83
2022/06/25 00:05:27;;;;;;;;;;;;;;;;;;4956165;28;19914;-83
2022/06/25 00:07:53;;;;;;;;;;;;;;;;;;4924125;28;20394;-84
2022/06/25 00:10:19;;;;;;;;;;;;;;;;;;4940434;28;19973;-81
2022/06/25 00:12:44;;;;;;;;;;;;;;;;;;4939373;28;19915;-82
2022/06/25 00:15:10;;;;;;;;;;;;;;;;;;4941021;28;19960;-84
2022/06/25 00:17:36;;;;;;;;;;;;;;;;;;4922917;28;20208;-84
2022/06/25 00:20:01;;;;;;;;;;;;;;;;;;4927742;28;20431;-87
2022/06/25 00:22:27;;;;;;;;;;;;;;;;;;4925210;29;20397;-85
2022/06/25 00:24:52;;;;;;;;;;;;;;;;;;4928627;28;19922;-85
2022/06/25 00:27:17;;;;;;;;;;;;;;;;;;4928958;28;20321;-86
2022/06/25 00:29:43;;;;;;;;;;;;;;;;;;4928629;28;19914;-85
2022/06/25 00:32:11;;;;;;;;;;;;;;;;;;4928593;28;19918;-86
2022/06/25 00:34:37;;;;;;;;;;;;;;;;;;4925732;28;20397;-86
2022/06/25 00:37:02;;;;;;;;;;;;;;;;;;4950606;23;20029;-80
2022/06/25 00:39:28;;;;;;;;;;;;;;;;;;4959286;28;20369;-80
2022/06/25 00:41:54;;;;;;;;;;;;;;;;;;4959196;28;20346;-79
2022/06/25 00:44:19;;;;;;;;;;;;;;;;;;4976866;28;20297;-81
2022/06/25 00:46:45;;;;;;;;;;;;;;;;;;4976256;28;20377;-80
2022/06/25 00:49:10;;;;;;;;;;;;;;;;;;4976966;28;19921;-80
2022/06/25 00:51:35;;;;;;;;;;;;;;;;;;4975133;28;20325;-80
2022/06/25 00:54:01;;;;;;;;;;;;;;;;;;4975438;28;19914;-81
2022/06/25 00:56:26;;;;;;;;;;;;;;;;;;4975304;28;19914;-77
2022/06/25 00:58:51;;;;;;;;;;;;;;;;;;4974937;28;20449;-79
2022/06/25 01:01:17;;;;;;;;;;;;;;;;;;4974977;28;19914;-77
2022/06/25 01:03:42;;;;;;;;;;;;;;;;;;4974626;28;19918;-78
2022/06/25 01:06:07;;;;;;;;;;;;;;;;;;4974960;28;19965;-77
2022/06/25 01:08:33;;;;;;;;;;;;;;;;;;4975183;28;20389;-78
2022/06/25 01:10:58;;;;;;;;;;;;;;;;;;4974923;28;19968;-78
2022/06/25 01:13:24;;;;;;;;;;;;;;;;;;4982494;28;20415;-79
2022/06/25 01:15:49;;;;;;;;;;;;;;;;;;4958756;28;19961;-79
2022/06/25 01:18:15;;;;;;;;;;;;;;;;;;4955618;29;19915;-79
2022/06/25 01:20:42;;;;;;;;;;;;;;;;;;4988846;28;20373;-77
2022/06/25 01:23:08;;;;;;;;;;;;;;;;;;4959337;28;20388;-80
2022/06/25 01:25:33;;;;;;;;;;;;;;;;;;4975658;28;19918;-82
2022/06/25 01:27:59;;;;;;;;;;;;;;;;;;4975827;28;20297;-80
2022/06/25 01:30:24;;;;;;;;;;;;;;;;;;4976141;28;20355;-80
2022/06/25 01:32:51;;;;;;;;;;;;;;;;;;4976273;28;19914;-82
2022/06/25 01:35:16;;;;;;;;;;;;;;;;;;4966611;28;19914;-82
2022/06/25 01:37:42;;;;;;;;;;;;;;;;;;4976705;28;20328;-80
2022/06/25 01:40:08;;;;;;;;;;;;;;;;;;4993090;28;19953;-82
2022/06/25 01:45:17;;;;;;;;;;;;;;;;;;4987802;28;19914;-82
2022/06/25 01:47:43;;;;;;;;;;;;;;;;;;4990301;28;20432;-81
2022/06/25 01:50:08;;;;;;;;;;;;;;;;;;4990881;28;19921;-81
2022/06/25 01:52:34;;;;;;;;;;;;;;;;;;4982646;28;19914;-80
2022/06/25 01:54:59;;;;;;;;;;;;;;;;;;4977582;28;20297;-80
2022/06/25 01:57:24;;;;;;;;;;;;;;;;;;4974873;28;20013;-82
2022/06/25 01:59:51;;;;;;;;;;;;;;;;;;4975516;28;19914;-80
2022/06/25 02:02:18;;;;;;;;;;;;;;;;;;4975002;28;19915;-79
2022/06/25 02:04:43;;;;;;;;;;;;;;;;;;4975648;28;19918;-79
2022/06/25 02:07:08;;;;;;;;;;;;;;;;;;4974381;28;19918;-80
2022/06/25 02:09:34;;;;;;;;;;;;;;;;;;4958244;28;19914;-81
2022/06/25 02:12:00;;;;;;;;;;;;;;;;;;4958020;28;20349;-79
2022/06/25 02:14:26;;;;;;;;;;;;;;;;;;4974667;28;19914;-83
2022/06/25 02:16:52;;;;;;;;;;;;;;;;;;4975649;28;19922;-80
2022/06/25 02:19:17;;;;;;;;;;;;;;;;;;4975500;28;20415;-80
2022/06/25 02:21:42;;;;;;;;;;;;;;;;;;4974487;28;19924;-81
2022/06/25 02:24:08;;;;;;;;;;;;;;;;;;4974946;28;19968;-83
2022/06/25 02:26:33;;;;;;;;;;;;;;;;;;4973848;28;19922;-80
2022/06/25 02:28:58;;;;;;;;;;;;;;;;;;4974870;28;19914;-80
2022/06/25 02:31:28;;;;;;;;;;;;;;;;;;4974995;28;20020;-83
2022/06/25 02:33:54;;;;;;;;;;;;;;;;;;4973404;28;19996;-79
2022/06/25 02:36:19;;;;;;;;;;;;;;;;;;4973604;28;19934;-78
2022/06/25 02:38:45;;;;;;;;;;;;;;;;;;4972245;28;19914;-83
2022/06/25 02:41:11;;;;;;;;;;;;;;;;;;4941675;28;19914;-83
2022/06/25 02:43:37;;;;;;;;;;;;;;;;;;4954771;28;20362;-78
2022/06/25 02:46:23;;;;;;;;;;;;;;;;;;4969613;28;19956;-78
2022/06/25 02:48:53;;;;;;;;;;;;;;;;;;4957198;28;20385;-79
2022/06/25 02:51:18;;;;;;;;;;;;;;;;;;4974376;28;19933;-79
2022/06/25 02:53:44;;;;;;;;;;;;;;;;;;4973408;28;20014;-79
2022/06/25 02:58:54;;;;;;;;;;;;;;;;;;4973933;28;20412;-81
2022/06/25 03:01:22;;;;;;;;;;;;;;;;;;4973655;28;20009;-81
2022/06/25 03:03:47;;;;;;;;;;;;;;;;;;4973609;28;19994;-80
2022/06/25 03:06:13;;;;;;;;;;;;;;;;;;4972674;28;19922;-80
2022/06/25 03:08:39;;;;;;;;;;;;;;;;;;4974084;28;19918;-83
2022/06/25 03:11:05;;;;;;;;;;;;;;;;;;4972789;28;19918;-83
2022/06/25 03:13:33;;;;;;;;;;;;;;;;;;4972842;28;19920;-82
2022/06/25 03:15:59;;;;;;;;;;;;;;;;;;4982096;28;20432;-81
2022/06/25 03:18:24;;;;;;;;;;;;;;;;;;4974626;28;19914;-78
2022/06/25 03:21:15;;;;;;;;;;;;;;;;;;4984270;28;19914;-81
2022/06/25 03:23:41;;;;;;;;;;;;;;;;;;4954540;28;20389;-79
2022/06/25 03:26:06;;;;;;;;;;;;;;;;;;4972683;28;20439;-81
2022/06/25 03:28:32;;;;;;;;;;;;;;;;;;4972744;28;19941;-81
2022/06/25 03:30:58;;;;;;;;;;;;;;;;;;4971624;28;20013;-80
2022/06/25 03:33:24;;;;;;;;;;;;;;;;;;4972150;28;19914;-79
2022/06/25 03:36:16;;;;;;;;;;;;;;;;;;4950143;28;19914;-78
2022/06/25 03:38:43;;;;;;;;;;;;;;;;;;4941123;28;19918;-79
2022/06/25 03:44:00;;;;;;;;;;;;;;;;;;4956129;28;19914;-79
2022/06/25 03:46:26;;;;;;;;;;;;;;;;;;4940367;28;20075;-78
2022/06/25 03:48:51;;;;;;;;;;;;;;;;;;4955198;28;20445;-80
2022/06/25 03:51:37;;;;;;;;;;;;;;;;;;4972370;28;19918;-78
2022/06/25 03:54:03;;;;;;;;;;;;;;;;;;4956685;28;20344;-79
2022/06/25 03:56:28;;;;;;;;;;;;;;;;;;4937490;29;19915;-81
2022/06/25 03:58:54;;;;;;;;;;;;;;;;;;4973384;28;19946;-79
2022/06/25 04:01:23;;;;;;;;;;;;;;;;;;4956792;28;19968;-78
2022/06/25 04:03:48;;;;;;;;;;;;;;;;;;4956327;28;19937;-78
2022/06/25 04:06:14;;;;;;;;;;;;;;;;;;4956677;28;19921;-80
2022/06/25 04:08:42;;;;;;;;;;;;;;;;;;4973539;28;19914;-83
2022/06/25 04:11:10;;;;;;;;;;;;;;;;;;4957334;28;19922;-79
2022/06/25 04:13:41;;;;;;;;;;;;;;;;;;4957114;28;19914;-81
2022/06/25 04:16:06;;;;;;;;;;;;;;;;;;4957298;28;20284;-81
2022/06/25 04:18:32;;;;;;;;;;;;;;;;;;4974591;28;19914;-81
2022/06/25 04:20:59;;;;;;;;;;;;;;;;;;4941122;28;19958;-80
2022/06/25 04:23:25;;;;;;;;;;;;;;;;;;4956148;28;19914;-80
2022/06/25 04:25:50;;;;;;;;;;;;;;;;;;4956069;28;20288;-80
2022/06/25 04:31:09;;;;;;;;;;;;;;;;;;4951122;28;19922;-81
2022/06/25 04:33:35;;;;;;;;;;;;;;;;;;4956993;28;19918;-81
2022/06/25 04:36:04;;;;;;;;;;;;;;;;;;4957259;28;19921;-80
2022/06/25 04:38:40;;;;;;;;;;;;;;;;;;4938437;28;19922;-81
2022/06/25 04:41:06;;;;;;;;;;;;;;;;;;4956671;28;19922;-79
2022/06/25 04:43:31;;;;;;;;;;;;;;;;;;4955389;28;20330;-82
2022/06/25 04:45:56;;;;;;;;;;;;;;;;;;4955354;28;20404;-81
2022/06/25 04:48:25;;;;;;;;;;;;;;;;;;4955399;28;20416;-81
2022/06/25 04:50:57;;;;;;;;;;;;;;;;;;4972466;28;19918;-81
2022/06/25 04:53:22;;;;;;;;;;;;;;;;;;4955354;28;20301;-80
2022/06/25 04:55:47;;;;;;;;;;;;;;;;;;4954511;28;20012;-81
2022/06/25 04:58:13;;;;;;;;;;;;;;;;;;4955386;28;19940;-77
2022/06/25 05:00:41;;;;;;;;;;;;;;;;;;4957393;28;19920;-81
2022/06/25 05:03:06;;;;;;;;;;;;;;;;;;4955325;28;19914;-82
2022/06/25 05:05:32;;;;;;;;;;;;;;;;;;4956740;28;20308;-84
2022/06/25 05:07:57;;;;;;;;;;;;;;;;;;4958700;28;19946;-85
2022/06/25 05:10:23;;;;;;;;;;;;;;;;;;4959365;28;19918;-84
2022/06/25 05:15:33;;;;;;;;;;;;;;;;;;4974949;28;19914;-81
2022/06/25 05:17:58;;;;;;;;;;;;;;;;;;4959099;28;19961;-84
2022/06/25 05:20:24;;;;;;;;;;;;;;;;;;4977031;28;20396;-81
2022/06/25 05:22:49;;;;;;;;;;;;;;;;;;4976144;28;19997;-84
2022/06/25 05:25:15;;;;;;;;;;;;;;;;;;4944804;28;19922;-84
2022/06/25 05:27:40;;;;;;;;;;;;;;;;;;4959575;28;20620;-85
2022/06/25 05:30:06;;;;;;;;;;;;;;;;;;4971294;28;19957;-85
2022/06/25 05:32:31;;;;;;;;;;;;;;;;;;4960221;28;19922;-83
2022/06/25 05:34:57;;;;;;;;;;;;;;;;;;4960211;28;19914;-86
2022/06/25 05:37:22;;;;;;;;;;;;;;;;;;4967574;28;19925;-85
2022/06/25 05:39:48;;;;;;;;;;;;;;;;;;4974206;28;19973;-82
2022/06/25 05:42:13;;;;;;;;;;;;;;;;;;4973653;28;20301;-86
2022/06/25 05:44:39;;;;;;;;;;;;;;;;;;4972870;28;20282;-83
2022/06/25 05:47:04;;;;;;;;;;;;;;;;;;4973791;28;19960;-80
2022/06/25 05:49:30;;;;;;;;;;;;;;;;;;4958527;28;19914;-85
2022/06/25 05:51:56;;;;;;;;;;;;;;;;;;4973268;28;19949;-85
2022/06/25 05:54:21;;;;;;;;;;;;;;;;;;4975601;28;20445;-83
2022/06/25 05:56:46;;;;;;;;;;;;;;;;;;4973293;28;20296;-85
2022/06/25 05:59:12;;;;;;;;;;;;;;;;;;4975075;28;20009;-85
2022/06/25 06:01:37;;;;;;;;;;;;;;;;;;4972576;28;20079;-84
2022/06/25 06:04:03;;;;;;;;;;;;;;;;;;4973822;28;20432;-83
2022/06/25 06:06:28;;;;;;;;;;;;;;;;;;4972596;28;19918;-80
2022/06/25 06:08:54;;;;;;;;;;;;;;;;;;4974512;28;20004;-87
2022/06/25 06:11:19;;;;;;;;;;;;;;;;;;4971895;28;19925;-79
2022/06/25 06:13:44;;;;;;;;;;;;;;;;;;4954632;28;19968;-81
2022/06/25 06:16:10;;;;;;;;;;;;;;;;;;4954288;28;19954;-83
2022/06/25 06:18:35;;;;;;;;;;;;;;;;;;4974683;28;19915;-85
2022/06/25 06:21:01;;;;;;;;;;;;;;;;;;4990041;28;20437;-78
2022/06/25 06:23:26;;;;;;;;;;;;;;;;;;4975128;28;19914;-80
2022/06/25 06:25:52;;;;;;;;;;;;;;;;;;4974956;28;20391;-80
2022/06/25 06:28:17;;;;;;;;;;;;;;;;;;4975452;28;19914;-82
2022/06/25 06:30:42;;;;;;;;;;;;;;;;;;4972954;28;19918;-82
2022/06/25 06:33:11;;;;;;;;;;;;;;;;;;4956483;29;19914;-82
2022/06/25 06:35:36;;;;;;;;;;;;;;;;;;4970689;28;19965;-84
2022/06/25 06:38:01;;;;;;;;;;;;;;;;;;4973388;23;19926;-85
2022/06/25 06:40:27;;;;;;;;;;;;;;;;;;4961769;28;20349;-85
2022/06/25 06:42:52;;;;;;;;;;;;;;;;;;4977454;28;19986;-86
2022/06/25 06:45:17;;;;;;;;;;;;;;;;;;4995023;28;19917;-86
2022/06/25 06:47:43;;;;;;;;;;;;;;;;;;4977943;28;20000;-85
2022/06/25 06:50:10;;;;;;;;;;;;;;;;;;4994673;28;19945;-84
2022/06/25 06:52:35;;;;;;;;;;;;;;;;;;4994476;28;19917;-86
2022/06/25 06:55:04;;;;;;;;;;;;;;;;;;4979598;28;19956;-86
2022/06/25 06:57:29;;;;;;;;;;;;;;;;;;4945868;28;19914;-85
2022/06/25 06:59:58;;;;;;;;;;;;;;;;;;4961668;28;20284;-83
2022/06/25 07:02:24;;;;;;;;;;;;;;;;;;4977434;28;19914;-83
2022/06/25 07:04:49;;;;;;;;;;;;;;;;;;4977259;28;20258;-84
2022/06/25 07:07:15;;;;;;;;;;;;;;;;;;4958696;28;19918;-83
2022/06/25 07:09:41;;;;;;;;;;;;;;;;;;4976339;28;19952;-83
2022/06/25 07:12:06;;;;;;;;;;;;;;;;;;4995072;28;19989;-83
2022/06/25 07:14:31;;;;;;;;;;;;;;;;;;4965253;28;20281;-82
2022/06/25 07:16:57;;;;;;;;;;;;;;;;;;4964992;28;19920;-81
2022/06/25 07:19:22;;;;;;;;;;;;;;;;;;4988435;28;19967;-80
2022/06/25 07:21:47;;;;;;;;;;;;;;;;;;4988412;28;19929;-82
2022/06/25 07:24:13;;;;;;;;;;;;;;;;;;4992552;28;19941;-81
2022/06/25 07:26:38;;;;;;;;;;;;;;;;;;4951363;28;19914;-81
2022/06/25 07:29:04;;;;;;;;;;;;;;;;;;5004366;28;19918;-82
2022/06/25 07:31:29;;;;;;;;;;;;;;;;;;4986625;28;19941;-82
2022/06/25 07:33:55;;;;;;;;;;;;;;;;;;4951886;28;19993;-84
2022/06/25 07:36:21;;;;;;;;;;;;;;;;;;4982939;28;19914;-82
2022/06/25 07:38:47;;;;;;;;;;;;;;;;;;4974699;28;19917;-81
2022/06/25 07:41:12;;;;;;;;;;;;;;;;;;4953154;28;19913;-85
2022/06/25 07:43:38;;;;;;;;;;;;;;;;;;4950605;28;20340;-84
2022/06/25 07:46:04;;;;;;;;;;;;;;;;;;4946502;28;19914;-84
2022/06/25 07:48:29;;;;;;;;;;;;;;;;;;4991398;28;19917;-85
2022/06/25 07:53:40;;;;;;;;;;;;;;;;;;4959812;28;19920;-83
2022/06/25 07:56:05;;;;;;;;;;;;;;;;;;4975609;28;20362;-83
2022/06/25 07:58:31;;;;;;;;;;;;;;;;;;4993310;28;19914;-83
2022/06/25 08:00:59;;;;;;;;;;;;;;;;;;4975800;28;20312;-83
2022/06/25 08:03:25;;;;;;;;;;;;;;;;;;4949389;28;19914;-84
2022/06/25 08:05:51;;;;;;;;;;;;;;;;;;4971069;28;19921;-85
2022/06/25 08:08:16;;;;;;;;;;;;;;;;;;4971213;28;20312;-85
2022/06/25 08:10:42;;;;;;;;;;;;;;;;;;4978527;28;19918;-88
2022/06/25 08:13:07;;;;;;;;;;;;;;;;;;5000338;28;20471;-87
2022/06/25 08:15:33;;;;;;;;;;;;;;;;;;4967008;28;19925;-87
2022/06/25 08:17:58;;;;;;;;;;;;;;;;;;4967572;28;19914;-87
2022/06/25 08:20:24;;;;;;;;;;;;;;;;;;4985346;28;20016;-87
2022/06/25 08:22:49;;;;;;;;;;;;;;;;;;4997617;28;19914;-86
2022/06/25 08:25:15;;;;;;;;;;;;;;;;;;4963379;28;19914;-87
2022/06/25 08:27:44;;;;;;;;;;;;;;;;;;4964222;28;19921;-79
2022/06/25 08:30:09;;;;;;;;;;;;;;;;;;4975508;28;19913;-80
2022/06/25 08:32:34;;;;;;;;;;;;;;;;;;4993719;28;19925;-78
2022/06/25 08:35:00;;;;;;;;;;;;;;;;;;4989845;28;19913;-79
2022/06/25 08:37:25;;;;;;;;;;;;;;;;;;4960866;28;20414;-79
2022/06/25 08:39:50;;;;;;;;;;;;;;;;;;4987988;28;19917;-77
2022/06/25 08:42:16;;;;;;;;;;;;;;;;;;4990342;28;20257;-77
2022/06/25 08:44:41;;;;;;;;;;;;;;;;;;4995591;28;19961;-78
2022/06/25 08:47:07;;;;;;;;;;;;;;;;;;4995916;28;19914;-79
2022/06/25 08:49:32;;;;;;;;;;;;;;;;;;4978622;28;19921;-79
2022/06/25 08:51:57;;;;;;;;;;;;;;;;;;4978969;28;19922;-79
2022/06/25 08:54:23;;;;;;;;;;;;;;;;;;4996004;28;19968;-79
2022/06/25 08:56:48;;;;;;;;;;;;;;;;;;4996013;28;20404;-77
2022/06/25 08:59:14;;;;;;;;;;;;;;;;;;4996008;28;19956;-78
2022/06/25 09:01:39;;;;;;;;;;;;;;;;;;4995764;28;20016;-79
2022/06/25 09:04:04;;;;;;;;;;;;;;;;;;4978711;28;19991;-80
2022/06/25 09:06:30;;;;;;;;;;;;;;;;;;4990000;28;19965;-79
2022/06/25 09:08:55;;;;;;;;;;;;;;;;;;4958764;28;19914;-79
2022/06/25 09:11:21;;;;;;;;;;;;;;;;;;4958827;28;19998;-78
2022/06/25 09:13:46;;;;;;;;;;;;;;;;;;4959364;28;19914;-78
2022/06/25 09:16:11;;;;;;;;;;;;;;;;;;4959232;28;20408;-78
2022/06/25 09:18:37;;;;;;;;;;;;;;;;;;4958648;28;20017;-80
2022/06/25 09:21:02;;;;;;;;;;;;;;;;;;4958891;28;19914;-80
2022/06/25 09:23:28;;;;;;;;;;;;;;;;;;4978435;28;20298;-80
2022/06/25 09:25:53;;;;;;;;;;;;;;;;;;4996127;28;19924;-80
2022/06/25 09:28:18;;;;;;;;;;;;;;;;;;4961717;28;19968;-79
2022/06/25 09:30:44;;;;;;;;;;;;;;;;;;4994924;28;19948;-79
2022/06/25 09:33:09;;;;;;;;;;;;;;;;;;4995424;28;20584;-77
2022/06/25 09:35:35;;;;;;;;;;;;;;;;;;4978082;28;19914;-78
2022/06/25 09:38:00;;;;;;;;;;;;;;;;;;4977403;28;19964;-81
2022/06/25 09:40:26;;;;;;;;;;;;;;;;;;4986602;28;19995;-79
2022/06/25 09:42:51;;;;;;;;;;;;;;;;;;4976303;28;20265;-80
2022/06/25 09:45:16;;;;;;;;;;;;;;;;;;4958294;28;19921;-78
2022/06/25 09:47:45;;;;;;;;;;;;;;;;;;4968248;28;19921;-80
2022/06/25 09:50:10;;;;;;;;;;;;;;;;;;4982543;28;20662;-79
2022/06/25 09:52:36;;;;;;;;;;;;;;;;;;4984182;28;19922;-80
2022/06/25 09:55:04;;;;;;;;;;;;;;;;;;4946156;28;19920;-79
2022/06/25 09:57:30;;;;;;;;;;;;;;;;;;4964468;28;19914;-79
2022/06/25 09:59:55;;;;;;;;;;;;;;;;;;4996070;28;19932;-80
2022/06/25 10:02:21;;;;;;;;;;;;;;;;;;4994028;28;20401;-78
2022/06/25 10:04:46;;;;;;;;;;;;;;;;;;4973928;28;19920;-79
2022/06/25 10:07:11;;;;;;;;;;;;;;;;;;4995868;28;19914;-80
2022/06/25 10:09:37;;;;;;;;;;;;;;;;;;4978020;28;20461;-80
2022/06/25 10:12:02;;;;;;;;;;;;;;;;;;4962207;28;19964;-81
2022/06/25 10:14:27;;;;;;;;;;;;;;;;;;4952612;28;20010;-78
2022/06/25 10:16:53;;;;;;;;;;;;;;;;;;4991999;28;20401;-80
2022/06/25 10:19:18;;;;;;;;;;;;;;;;;;4994571;28;19918;-80
2022/06/25 10:21:47;;;;;;;;;;;;;;;;;;4977000;28;19913;-79
2022/06/25 10:24:15;;;;;;;;;;;;;;;;;;4966602;28;19914;-82
2022/06/25 10:26:40;;;;;;;;;;;;;;;;;;4945505;28;19914;-81
2022/06/25 10:29:06;;;;;;;;;;;;;;;;;;4976851;28;19924;-81
2022/06/25 10:31:31;;;;;;;;;;;;;;;;;;4961602;28;19918;-82
2022/06/25 10:33:57;;;;;;;;;;;;;;;;;;4979997;28;20457;-82
2022/06/25 10:36:22;;;;;;;;;;;;;;;;;;4947254;28;19968;-83
2022/06/25 10:38:48;;;;;;;;;;;;;;;;;;4949617;28;19921;-83
2022/06/25 10:44:00;;;;;;;;;;;;;;;;;;4998620;28;19913;-85
2022/06/25 10:46:26;;;;;;;;;;;;;;;;;;4946740;28;20013;-83
2022/06/25 10:48:55;;;;;;;;;;;;;;;;;;4994265;28;20419;-87
2022/06/25 10:51:20;;;;;;;;;;;;;;;;;;4979404;28;19982;-87
2022/06/25 10:53:46;;;;;;;;;;;;;;;;;;4976592;28;19910;-84
2022/06/25 10:56:12;;;;;;;;;;;;;;;;;;4992434;28;19914;-90
2022/06/25 10:58:41;;;;;;;;;;;;;;;;;;4972691;28;19906;-90
2022/06/25 11:01:07;;;;;;;;;;;;;;;;;;4968289;28;20002;-91
2022/06/25 11:03:36;;;;;;;;;;;;;;;;;;4979710;28;19929;-90
2022/06/25 11:06:02;;;;;;;;;;;;;;;;;;4967923;28;19945;-89
2022/06/25 11:08:28;;;;;;;;;;;;;;;;;;4973856;28;19914;-89
2022/06/25 11:10:53;;;;;;;;;;;;;;;;;;4976158;28;19928;-88
2022/06/25 11:13:22;;;;;;;;;;;;;;;;;;4949868;28;19981;-90
2022/06/25 11:15:50;;;;;;;;;;;;;;;;;;4942829;28;19921;-89
2022/06/25 11:18:22;;;;;;;;;;;;;;;;;;4943903;28;19914;-89
2022/06/25 11:20:57;;;;;;;;;;;;;;;;;;;;;
2022/06/25 11:23:49;;;;;;;;;;;;;;;;;;4997396;28;19921;-89
2022/06/25 11:28:48;;;;;;;;;;;;;;;;;;4994409;28;19926;-84
2022/06/25 11:31:13;;;;;;;;;;;;;;;;;;4953601;29;19918;-84
2022/06/25 11:33:40;;;;;;;;;;;;;;;;;;4928735;28;19918;-83
2022/06/25 11:36:06;;;;;;;;;;;;;;;;;;4947040;29;19918;-84
2022/06/25 11:38:31;;;;;;;;;;;;;;;;;;4937549;28;19995;-87
2022/06/25 11:40:56;;;;;;;;;;;;;;;;;;4923450;29;20010;-84
2022/06/25 11:43:22;;;;;;;;;;;;;;;;;;4931160;28;19953;-86
2022/06/25 11:45:47;;;;;;;;;;;;;;;;;;4948241;29;20308;-86
2022/06/25 11:48:13;;;;;;;;;;;;;;;;;;4944143;29;20021;-89
2022/06/25 11:50:38;;;;;;;;;;;;;;;;;;4937245;28;19914;-80
2022/06/25 11:53:04;;;;;;;;;;;;;;;;;;4940068;28;19952;-81
2022/06/25 11:55:32;;;;;;;;;;;;;;;;;;4967582;28;19910;-84
2022/06/25 11:58:18;;;;;;;;;;;;;;;;;;4935155;28;19961;-82
2022/06/25 12:00:54;;;;;;;;;;;;;;;;;;4915732;28;19918;-82
2022/06/25 12:03:45;;;;;;;;;;;;;;;;;;4950372;29;19970;-80
2022/06/25 12:06:11;;;;;;;;;;;;;;;;;;4948130;28;19914;-82
2022/06/25 12:08:36;;;;;;;;;;;;;;;;;;4936700;29;19910;-82
2022/06/25 12:11:23;;;;;;;;;;;;;;;;;;4939273;28;19925;-83
2022/06/25 12:13:51;;;;;;;;;;;;;;;;;;4931237;28;19975;-84
2022/06/25 12:16:44;;;;;;;;;;;;;;;;;;4942510;28;19937;-82
2022/06/25 12:20:14;;;;;;;;;;;;;;;;;;4919259;28;19927;-82
2022/06/25 12:25:56;;;;;;;;;;;;;;;;;;4866858;29;19920;-77
2022/06/25 12:28:23;;;;;;;;;;;;;;;;;;4953554;28;19973;-78
2022/06/25 12:30:49;;;;;;;;;;;;;;;;;;4928011;28;19918;-78
2022/06/25 12:33:20;;;;;;;;;;;;;;;;;;4972378;28;19911;-85
2022/06/25 12:35:46;;;;;;;;;;;;;;;;;;4932820;28;19921;-76
2022/06/25 12:38:11;;;;;;;;;;;;;;;;;;4939786;29;20289;-79
2022/06/25 12:40:37;;;;;;;;;;;;;;;;;;4970443;28;19949;-80
2022/06/25 12:43:05;;;;;;;;;;;;;;;;;;4957748;29;19965;-78
2022/06/25 12:45:30;;;;;;;;;;;;;;;;;;4943724;29;19914;-80
2022/06/25 12:47:56;;;;;;;;;;;;;;;;;;4948736;28;20267;-79
2022/06/25 12:50:22;;;;;;;;;;;;;;;;;;4947996;29;20370;-82
2022/06/25 12:52:48;;;;;;;;;;;;;;;;;;4940057;28;19914;-79
2022/06/25 12:55:13;;;;;;;;;;;;;;;;;;4945825;28;19914;-80
2022/06/25 12:57:38;;;;;;;;;;;;;;;;;;4938638;29;19915;-80
2022/06/25 13:00:04;;;;;;;;;;;;;;;;;;4954951;28;19922;-78
2022/06/25 13:02:32;;;;;;;;;;;;;;;;;;4944541;29;19917;-78
2022/06/25 13:04:57;;;;;;;;;;;;;;;;;;4931912;29;19919;-81
2022/06/25 13:07:23;;;;;;;;;;;;;;;;;;4939943;29;19953;-79
2022/06/25 13:09:48;;;;;;;;;;;;;;;;;;4924113;29;20009;-78
2022/06/25 13:12:14;;;;;;;;;;;;;;;;;;4940212;29;20035;-82
2022/06/25 13:14:40;;;;;;;;;;;;;;;;;;4942001;29;19946;-84
2022/06/25 13:17:05;;;;;;;;;;;;;;;;;;4958220;29;20324;-81
2022/06/25 13:19:31;;;;;;;;;;;;;;;;;;4957252;28;19915;-85
2022/06/25 13:21:56;;;;;;;;;;;;;;;;;;4973533;28;19928;-86
2022/06/25 13:24:22;;;;;;;;;;;;;;;;;;4977749;28;19922;-87
2022/06/25 13:26:47;;;;;;;;;;;;;;;;;;4954279;28;20001;-89
2022/06/25 13:29:12;;;;;;;;;;;;;;;;;;4944726;28;19918;-91
2022/06/25 13:31:41;;;;;;;;;;;;;;;;;;4931779;28;20386;-91
2022/06/25 13:34:07;;;;;;;;;;;;;;;;;;4913215;29;19921;-90
2022/06/25 13:36:32;;;;;;;;;;;;;;;;;;4962177;29;19915;-87
2022/06/25 13:38:57;;;;;;;;;;;;;;;;;;4925706;29;19918;-85
2022/06/25 13:41:23;;;;;;;;;;;;;;;;;;4958086;29;19922;-88
2022/06/25 13:43:54;;;;;;;;;;;;;;;;;;4924900;29;20049;-87
2022/06/25 13:46:19;;;;;;;;;;;;;;;;;;4941465;29;20057;-86
2022/06/25 13:48:45;;;;;;;;;;;;;;;;;;4941250;29;19946;-90
2022/06/25 13:51:10;;;;;;;;;;;;;;;;;;4942471;29;19922;-90
2022/06/25 13:53:35;;;;;;;;;;;;;;;;;;4941883;29;20001;-89
2022/06/25 13:56:01;;;;;;;;;;;;;;;;;;4941867;29;20457;-92
2022/06/25 13:58:26;;;;;;;;;;;;;;;;;;4928392;29;19911;-90
2022/06/25 14:00:52;;;;;;;;;;;;;;;;;;4927956;29;19988;-91
2022/06/25 14:03:17;;;;;;;;;;;;;;;;;;4943299;29;20366;-92
2022/06/25 14:05:43;;;;;;;;;;;;;;;;;;4930092;29;19915;-91
2022/06/25 14:08:08;;;;;;;;;;;;;;;;;;4930039;29;20400;-83
2022/06/25 14:10:34;;;;;;;;;;;;;;;;;;4942323;29;19950;-86
2022/06/25 14:12:59;;;;;;;;;;;;;;;;;;4925890;29;19922;-89
2022/06/25 14:15:25;;;;;;;;;;;;;;;;;;4955677;29;19915;-90
2022/06/25 14:17:50;;;;;;;;;;;;;;;;;;4939674;28;19925;-89
2022/06/25 14:20:16;;;;;;;;;;;;;;;;;;4924171;29;20357;-90
2022/06/25 14:22:41;;;;;;;;;;;;;;;;;;4927353;29;19922;-89
2022/06/25 14:25:24;;;;;;;;;;;;;;;;;;4925973;29;20005;-90
2022/06/25 14:27:49;;;;;;;;;;;;;;;;;;4957171;28;19923;-90
2022/06/25 14:30:15;;;;;;;;;;;;;;;;;;4940803;29;20370;-90
2022/06/25 14:32:40;;;;;;;;;;;;;;;;;;4957209;29;20389;-88
2022/06/25 14:35:05;;;;;;;;;;;;;;;;;;4942668;29;19915;-89
2022/06/25 14:42:59;;;;;;;;;;;;;;;;;;4958760;29;20384;-90
2022/06/25 14:45:25;;;;;;;;;;;;;;;;;;4926283;29;19965;-88
2022/06/25 14:47:50;;;;;;;;;;;;;;;;;;4925979;28;20393;-91
2022/06/25 14:50:15;;;;;;;;;;;;;;;;;;4960556;29;19941;-88
2022/06/25 14:52:41;;;;;;;;;;;;;;;;;;4963233;29;19926;-87
2022/06/25 14:55:06;;;;;;;;;;;;;;;;;;4966456;29;19993;-89
2022/06/25 14:57:32;;;;;;;;;;;;;;;;;;4967068;28;19997;-90
2022/06/25 14:59:57;;;;;;;;;;;;;;;;;;4960894;29;19926;-89
2022/06/25 15:02:22;;;;;;;;;;;;;;;;;;4943464;29;19918;-89
2022/06/25 15:04:48;;;;;;;;;;;;;;;;;;4943865;29;20353;-88
2022/06/25 15:07:13;;;;;;;;;;;;;;;;;;4942850;29;20289;-90
2022/06/25 15:09:39;;;;;;;;;;;;;;;;;;4929512;29;19914;-91
2022/06/25 15:12:04;;;;;;;;;;;;;;;;;;4926584;29;20124;-89
2022/06/25 15:14:30;;;;;;;;;;;;;;;;;;4945027;29;19917;-88
2022/06/25 15:16:55;;;;;;;;;;;;;;;;;;4943028;29;19922;-91
2022/06/25 15:19:21;;;;;;;;;;;;;;;;;;4944152;29;19953;-89
2022/06/25 15:21:46;;;;;;;;;;;;;;;;;;4959350;29;19921;-90
2022/06/25 15:24:12;;;;;;;;;;;;;;;;;;4943203;29;19970;-89
2022/06/25 15:26:37;;;;;;;;;;;;;;;;;;4942649;29;19918;-90
2022/06/25 15:29:03;;;;;;;;;;;;;;;;;;4926300;29;19922;-90
2022/06/25 15:31:28;;;;;;;;;;;;;;;;;;4940962;29;19918;-90
2022/06/25 15:33:53;;;;;;;;;;;;;;;;;;4926019;29;19921;-91
2022/06/25 15:36:19;;;;;;;;;;;;;;;;;;4924348;29;19953;-90
2022/06/25 15:38:44;;;;;;;;;;;;;;;;;;4924198;29;19965;-90
2022/06/25 15:41:10;;;;;;;;;;;;;;;;;;4940689;29;19915;-91
2022/06/25 15:43:36;;;;;;;;;;;;;;;;;;4940081;29;19915;-90
2022/06/25 15:46:01;;;;;;;;;;;;;;;;;;4956434;29;20334;-89
2022/06/25 15:48:27;;;;;;;;;;;;;;;;;;4944234;28;20408;-90
2022/06/25 15:50:52;;;;;;;;;;;;;;;;;;4978018;28;19925;-92
2022/06/25 15:53:18;;;;;;;;;;;;;;;;;;4963824;28;19954;-89
2022/06/25 15:55:43;;;;;;;;;;;;;;;;;;4976966;28;19910;-90
2022/06/25 15:58:08;;;;;;;;;;;;;;;;;;4960440;28;19914;-91
2022/06/25 16:00:34;;;;;;;;;;;;;;;;;;4976879;28;20374;-92
2022/06/25 16:02:59;;;;;;;;;;;;;;;;;;4959216;28;19910;-91
2022/06/25 16:05:25;;;;;;;;;;;;;;;;;;4977497;28;19918;-93
2022/06/25 16:07:50;;;;;;;;;;;;;;;;;;4975595;28;19993;-91
2022/06/25 16:10:15;;;;;;;;;;;;;;;;;;4943555;28;20321;-90
2022/06/25 16:12:43;;;;;;;;;;;;;;;;;;4960613;28;19941;-90
2022/06/25 16:15:09;;;;;;;;;;;;;;;;;;4960679;28;20000;-89
2022/06/25 16:17:34;;;;;;;;;;;;;;;;;;4960396;28;19988;-90
2022/06/25 16:20:00;;;;;;;;;;;;;;;;;;4928407;28;20441;-91
2022/06/25 16:22:25;;;;;;;;;;;;;;;;;;4944464;28;20001;-91
2022/06/25 16:24:50;;;;;;;;;;;;;;;;;;4942664;28;19920;-91
2022/06/25 16:27:16;;;;;;;;;;;;;;;;;;4927649;28;19946;-90
2022/06/25 16:29:42;;;;;;;;;;;;;;;;;;4927311;28;20009;-91
2022/06/25 16:32:08;;;;;;;;;;;;;;;;;;4926852;28;19918;-91
2022/06/25 16:34:33;;;;;;;;;;;;;;;;;;4959246;28;19941;-90
2022/06/25 16:36:59;;;;;;;;;;;;;;;;;;4959892;28;20251;-90
2022/06/25 16:39:24;;;;;;;;;;;;;;;;;;4941589;28;19917;-89
2022/06/25 16:41:49;;;;;;;;;;;;;;;;;;4927988;28;19921;-91
2022/06/25 16:44:15;;;;;;;;;;;;;;;;;;4959267;28;20356;-90
2022/06/25 16:46:40;;;;;;;;;;;;;;;;;;4945114;28;19990;-90
2022/06/25 16:49:06;;;;;;;;;;;;;;;;;;4931079;28;19926;-90
2022/06/25 16:51:34;;;;;;;;;;;;;;;;;;4947301;28;19914;-91
2022/06/25 16:54:09;;;;;;;;;;;;;;;;;;4949177;28;20018;-90
2022/06/25 16:56:37;;;;;;;;;;;;;;;;;;4933684;28;20008;-91
2022/06/25 16:59:03;;;;;;;;;;;;;;;;;;4951482;28;19925;-91
2022/06/25 17:01:28;;;;;;;;;;;;;;;;;;4981296;28;20281;-89
2022/06/25 17:03:54;;;;;;;;;;;;;;;;;;4945779;28;19914;-88
2022/06/25 17:06:19;;;;;;;;;;;;;;;;;;4932286;28;19932;-90
2022/06/25 17:08:44;;;;;;;;;;;;;;;;;;4934693;28;19914;-90
2022/06/25 17:11:10;;;;;;;;;;;;;;;;;;4951244;28;19918;-92